sensor_id;sensor_type;location;lat;lon;timestamp;pressure;altitude;pressure_sealevel;temperature;humidity
12203;BME280;6164;42.178;24.622;2024-02-28T00:01:52;100188.22;;;8.39;100.00
12203;BME280;6164;42.178;24.622;2024-02-28T00:04:19;100188.22;;;8.39;100.00
12203;BME280;6164;42.178;24.622;2024-02-28T00:06:46;100190.16;;;8.37;100.00
12203;BME280;6164;42.178;24.622;2024-02-28T00:09:12;100192.13;;;8.35;100.00
12203;BME280;6164;42.178;24.622;2024-02-28T00:11:42;100195.69;;;8.34;100.00
12203;BME280;6164;42.178;24.622;2024-02-28T00:14:08;100193.91;;;8.35;100.00
12203;BME280;6164;42.178;24.622;2024-02-28T00:16:35;100200.69;;;8.37;100.00
12203;BME280;6164;42.178;24.622;2024-02-28T00:19:02;100197.91;;;8.39;100.00
12203;BME280;6164;42.178;24.622;2024-02-28T00:21:30;100194.63;;;8.37;100.00
12203;BME280;6164;42.178;24.622;2024-02-28T00:23:56;100198.34;;;8.34;100.00
12203;BME280;6164;42.178;24.622;2024-02-28T00:26:23;100200.97;;;8.34;100.00
12203;BME280;6164;42.178;24.622;2024-02-28T00:28:49;100211.91;;;8.30;100.00
12203;BME280;6164;42.178;24.622;2024-02-28T00:31:15;100206.06;;;8.17;100.00
12203;BME280;6164;42.178;24.622;2024-02-28T00:33:42;100202.88;;;8.23;100.00
12203;BME280;6164;42.178;24.622;2024-02-28T00:36:08;100212.03;;;8.19;100.00
12203;BME280;6164;42.178;24.622;2024-02-28T00:38:39;100207.84;;;8.16;100.00
12203;BME280;6164;42.178;24.622;2024-02-28T00:41:05;100209.50;;;8.17;100.00
12203;BME280;6164;42.178;24.622;2024-02-28T00:43:32;100209.78;;;8.14;100.00
12203;BME280;6164;42.178;24.622;2024-02-28T00:45:59;100207.03;;;8.06;100.00
12203;BME280;6164;42.178;24.622;2024-02-28T00:48:25;100206.88;;;7.88;100.00
12203;BME280;6164;42.178;24.622;2024-02-28T00:50:52;100194.94;;;7.75;100.00
12203;BME280;6164;42.178;24.622;2024-02-28T00:53:18;100196.88;;;7.73;100.00
12203;BME280;6164;42.178;24.622;2024-02-28T00:55:46;100201.69;;;7.68;100.00
12203;BME280;6164;42.178;24.622;2024-02-28T00:58:12;100192.81;;;7.50;100.00
12203;BME280;6164;42.178;24.622;2024-02-28T01:00:39;100200.03;;;7.48;100.00
12203;BME280;6164;42.178;24.622;2024-02-28T01:03:06;100204.00;;;7.42;100.00
12203;BME280;6164;42.178;24.622;2024-02-28T01:05:34;100199.03;;;7.39;100.00
12203;BME280;6164;42.178;24.622;2024-02-28T01:08:00;100203.00;;;7.34;100.00
12203;BME280;6164;42.178;24.622;2024-02-28T01:10:27;100199.50;;;7.24;100.00
12203;BME280;6164;42.178;24.622;2024-02-28T01:12:54;100205.38;;;7.07;100.00
12203;BME280;6164;42.178;24.622;2024-02-28T01:15:21;100210.78;;;6.85;100.00
12203;BME280;6164;42.178;24.622;2024-02-28T01:17:47;100208.56;;;6.80;100.00
12203;BME280;6164;42.178;24.622;2024-02-28T01:20:14;100213.94;;;6.58;100.00
12203;BME280;6164;42.178;24.622;2024-02-28T01:22:40;100207.84;;;6.57;100.00
12203;BME280;6164;42.178;24.622;2024-02-28T01:25:07;100207.97;;;6.56;100.00
12203;BME280;6164;42.178;24.622;2024-02-28T01:27:34;100206.72;;;6.50;100.00
12203;BME280;6164;42.178;24.622;2024-02-28T01:30:02;100201.28;;;6.42;100.00
12203;BME280;6164;42.178;24.622;2024-02-28T01:32:29;100201.56;;;6.28;100.00
12203;BME280;6164;42.178;24.622;2024-02-28T01:34:55;100198.22;;;5.95;100.00
12203;BME280;6164;42.178;24.622;2024-02-28T01:37:22;100203.84;;;5.90;100.00
12203;BME280;6164;42.178;24.622;2024-02-28T01:39:48;100208.84;;;5.93;100.00
12203;BME280;6164;42.178;24.622;2024-02-28T01:42:15;100209.09;;;5.79;100.00
12203;BME280;6164;42.178;24.622;2024-02-28T01:44:43;100214.59;;;5.65;100.00
12203;BME280;6164;42.178;24.622;2024-02-28T01:47:12;100219.16;;;5.63;100.00
12203;BME280;6164;42.178;24.622;2024-02-28T01:49:39;100211.03;;;5.66;100.00
12203;BME280;6164;42.178;24.622;2024-02-28T01:52:06;100223.63;;;5.72;100.00
12203;BME280;6164;42.178;24.622;2024-02-28T01:54:33;100216.13;;;5.79;100.00
12203;BME280;6164;42.178;24.622;2024-02-28T01:57:01;100219.38;;;5.82;100.00
12203;BME280;6164;42.178;24.622;2024-02-28T01:59:27;100227.94;;;5.84;100.00
12203;BME280;6164;42.178;24.622;2024-02-28T02:01:54;100229.34;;;5.88;100.00
12203;BME280;6164;42.178;24.622;2024-02-28T02:04:23;100235.19;;;5.92;100.00
12203;BME280;6164;42.178;24.622;2024-02-28T02:06:49;100220.41;;;5.91;100.00
12203;BME280;6164;42.178;24.622;2024-02-28T02:09:19;100230.78;;;5.92;100.00
12203;BME280;6164;42.178;24.622;2024-02-28T02:11:45;100226.59;;;5.90;100.00
12203;BME280;6164;42.178;24.622;2024-02-28T02:14:12;100239.00;;;5.88;100.00
12203;BME280;6164;42.178;24.622;2024-02-28T02:16:39;100237.91;;;5.90;100.00
12203;BME280;6164;42.178;24.622;2024-02-28T02:19:05;100239.69;;;5.90;100.00
12203;BME280;6164;42.178;24.622;2024-02-28T02:21:37;100245.19;;;5.87;100.00
12203;BME280;6164;42.178;24.622;2024-02-28T02:24:05;100252.94;;;5.88;100.00
12203;BME280;6164;42.178;24.622;2024-02-28T02:26:32;100258.75;;;5.81;100.00
12203;BME280;6164;42.178;24.622;2024-02-28T02:28:58;100254.00;;;5.64;100.00
12203;BME280;6164;42.178;24.622;2024-02-28T02:31:25;100274.25;;;5.51;100.00
12203;BME280;6164;42.178;24.622;2024-02-28T02:33:51;100278.31;;;5.55;100.00
12203;BME280;6164;42.178;24.622;2024-02-28T02:36:18;100283.22;;;5.48;100.00
12203;BME280;6164;42.178;24.622;2024-02-28T02:38:44;100279.53;;;5.28;100.00
12203;BME280;6164;42.178;24.622;2024-02-28T02:41:12;100278.06;;;5.13;100.00
12203;BME280;6164;42.178;24.622;2024-02-28T02:43:39;100284.28;;;4.78;100.00
12203;BME280;6164;42.178;24.622;2024-02-28T02:46:04;100298.59;;;4.50;100.00
12203;BME280;6164;42.178;24.622;2024-02-28T02:48:31;100293.78;;;4.33;100.00
12203;BME280;6164;42.178;24.622;2024-02-28T02:50:58;100303.16;;;4.36;100.00
12203;BME280;6164;42.178;24.622;2024-02-28T02:53:24;100299.50;;;4.38;100.00
12203;BME280;6164;42.178;24.622;2024-02-28T02:55:51;100301.16;;;4.39;100.00
12203;BME280;6164;42.178;24.622;2024-02-28T02:58:20;100296.66;;;4.41;100.00
12203;BME280;6164;42.178;24.622;2024-02-28T03:00:46;100298.69;;;4.49;100.00
12203;BME280;6164;42.178;24.622;2024-02-28T03:03:13;100295.41;;;4.58;100.00
12203;BME280;6164;42.178;24.622;2024-02-28T03:05:39;100299.34;;;4.63;100.00
12203;BME280;6164;42.178;24.622;2024-02-28T03:08:06;100298.56;;;4.74;100.00
12203;BME280;6164;42.178;24.622;2024-02-28T03:10:32;100293.69;;;4.80;100.00
12203;BME280;6164;42.178;24.622;2024-02-28T03:12:59;100295.13;;;4.84;100.00
12203;BME280;6164;42.178;24.622;2024-02-28T03:15:27;100290.50;;;4.88;100.00
12203;BME280;6164;42.178;24.622;2024-02-28T03:17:53;100290.06;;;4.94;100.00
12203;BME280;6164;42.178;24.622;2024-02-28T03:20:20;100294.22;;;4.96;100.00
12203;BME280;6164;42.178;24.622;2024-02-28T03:22:46;100293.75;;;5.02;100.00
12203;BME280;6164;42.178;24.622;2024-02-28T03:25:13;100295.41;;;5.03;100.00
12203;BME280;6164;42.178;24.622;2024-02-28T03:27:39;100295.31;;;5.05;100.00
12203;BME280;6164;42.178;24.622;2024-02-28T03:30:06;100293.03;;;5.00;100.00
12203;BME280;6164;42.178;24.622;2024-02-28T03:32:34;100294.22;;;5.07;100.00
12203;BME280;6164;42.178;24.622;2024-02-28T03:35:00;100289.59;;;5.11;100.00
12203;BME280;6164;42.178;24.622;2024-02-28T03:37:27;100292.09;;;5.12;100.00
12203;BME280;6164;42.178;24.622;2024-02-28T03:39:53;100292.81;;;5.14;100.00
12203;BME280;6164;42.178;24.622;2024-02-28T03:42:20;100297.13;;;5.15;100.00
12203;BME280;6164;42.178;24.622;2024-02-28T03:44:46;100297.22;;;5.14;100.00
12203;BME280;6164;42.178;24.622;2024-02-28T03:47:13;100293.78;;;5.13;100.00
12203;BME280;6164;42.178;24.622;2024-02-28T03:49:40;100292.44;;;4.97;100.00
12203;BME280;6164;42.178;24.622;2024-02-28T03:52:07;100294.13;;;4.63;100.00
12203;BME280;6164;42.178;24.622;2024-02-28T03:54:33;100292.59;;;4.14;100.00
12203;BME280;6164;42.178;24.622;2024-02-28T03:57:00;100300.81;;;3.96;100.00
12203;BME280;6164;42.178;24.622;2024-02-28T03:59:26;100302.41;;;3.86;100.00
12203;BME280;6164;42.178;24.622;2024-02-28T04:01:53;100310.19;;;3.75;100.00
12203;BME280;6164;42.178;24.622;2024-02-28T04:04:19;100314.59;;;3.62;100.00
12203;BME280;6164;42.178;24.622;2024-02-28T04:06:47;100316.25;;;3.63;100.00
12203;BME280;6164;42.178;24.622;2024-02-28T04:09:14;100327.13;;;3.57;100.00
12203;BME280;6164;42.178;24.622;2024-02-28T04:11:40;100325.13;;;3.48;100.00
12203;BME280;6164;42.178;24.622;2024-02-28T04:14:08;100327.31;;;3.54;100.00
12203;BME280;6164;42.178;24.622;2024-02-28T04:16:34;100322.97;;;3.42;100.00
12203;BME280;6164;42.178;24.622;2024-02-28T04:19:00;100324.19;;;3.49;100.00
12203;BME280;6164;42.178;24.622;2024-02-28T04:21:27;100327.94;;;3.58;100.00
12203;BME280;6164;42.178;24.622;2024-02-28T04:23:55;100322.31;;;3.64;100.00
12203;BME280;6164;42.178;24.622;2024-02-28T04:26:21;100327.94;;;3.70;100.00
12203;BME280;6164;42.178;24.622;2024-02-28T04:28:48;100324.78;;;3.78;100.00
12203;BME280;6164;42.178;24.622;2024-02-28T04:31:14;100328.97;;;3.80;100.00
12203;BME280;6164;42.178;24.622;2024-02-28T04:33:41;100331.25;;;3.85;100.00
12203;BME280;6164;42.178;24.622;2024-02-28T04:36:07;100337.31;;;3.73;100.00
12203;BME280;6164;42.178;24.622;2024-02-28T04:38:34;100334.09;;;3.82;100.00
12203;BME280;6164;42.178;24.622;2024-02-28T04:41:02;100324.97;;;3.87;100.00
12203;BME280;6164;42.178;24.622;2024-02-28T04:43:28;100320.59;;;3.88;100.00
12203;BME280;6164;42.178;24.622;2024-02-28T04:45:55;100331.75;;;3.90;100.00
12203;BME280;6164;42.178;24.622;2024-02-28T04:48:21;100329.03;;;3.91;100.00
12203;BME280;6164;42.178;24.622;2024-02-28T04:50:47;100331.66;;;3.91;100.00
12203;BME280;6164;42.178;24.622;2024-02-28T04:53:14;100330.06;;;3.89;100.00
12203;BME280;6164;42.178;24.622;2024-02-28T04:55:41;100338.19;;;3.97;100.00
12203;BME280;6164;42.178;24.622;2024-02-28T04:58:08;100332.50;;;3.92;100.00
12203;BME280;6164;42.178;24.622;2024-02-28T05:00:35;100330.69;;;3.92;100.00
12203;BME280;6164;42.178;24.622;2024-02-28T05:03:01;100329.00;;;4.04;100.00
12203;BME280;6164;42.178;24.622;2024-02-28T05:05:28;100321.56;;;4.11;100.00
12203;BME280;6164;42.178;24.622;2024-02-28T05:07:54;100325.50;;;4.16;100.00
12203;BME280;6164;42.178;24.622;2024-02-28T05:10:21;100333.75;;;4.23;100.00
12203;BME280;6164;42.178;24.622;2024-02-28T05:12:47;100330.78;;;4.27;100.00
12203;BME280;6164;42.178;24.622;2024-02-28T05:15:15;100338.25;;;4.21;100.00
12203;BME280;6164;42.178;24.622;2024-02-28T05:17:42;100339.59;;;4.26;100.00
12203;BME280;6164;42.178;24.622;2024-02-28T05:20:09;100350.56;;;4.31;100.00
12203;BME280;6164;42.178;24.622;2024-02-28T05:22:35;100346.97;;;4.32;100.00
12203;BME280;6164;42.178;24.622;2024-02-28T05:25:02;100347.66;;;4.23;100.00
12203;BME280;6164;42.178;24.622;2024-02-28T05:27:29;100354.88;;;4.20;100.00
12203;BME280;6164;42.178;24.622;2024-02-28T05:29:55;100363.31;;;3.87;100.00
12203;BME280;6164;42.178;24.622;2024-02-28T05:32:23;100370.94;;;3.77;100.00
12203;BME280;6164;42.178;24.622;2024-02-28T05:34:50;100375.53;;;3.86;100.00
12203;BME280;6164;42.178;24.622;2024-02-28T05:37:16;100380.31;;;3.92;100.00
12203;BME280;6164;42.178;24.622;2024-02-28T05:39:43;100382.00;;;3.93;100.00
12203;BME280;6164;42.178;24.622;2024-02-28T05:42:10;100382.00;;;3.93;100.00
12203;BME280;6164;42.178;24.622;2024-02-28T05:44:36;100395.19;;;3.92;100.00
12203;BME280;6164;42.178;24.622;2024-02-28T05:47:03;100381.59;;;3.87;100.00
12203;BME280;6164;42.178;24.622;2024-02-28T05:49:30;100390.25;;;4.00;100.00
12203;BME280;6164;42.178;24.622;2024-02-28T05:51:57;100388.03;;;4.07;100.00
12203;BME280;6164;42.178;24.622;2024-02-28T05:54:23;100391.78;;;4.15;100.00
12203;BME280;6164;42.178;24.622;2024-02-28T05:56:50;100383.41;;;4.23;100.00
12203;BME280;6164;42.178;24.622;2024-02-28T05:59:17;100377.41;;;4.33;100.00
12203;BME280;6164;42.178;24.622;2024-02-28T06:01:44;100386.59;;;4.39;100.00
12203;BME280;6164;42.178;24.622;2024-02-28T06:04:10;100385.22;;;4.46;100.00
12203;BME280;6164;42.178;24.622;2024-02-28T06:06:39;100386.44;;;4.53;100.00
12203;BME280;6164;42.178;24.622;2024-02-28T06:09:05;100380.88;;;4.57;100.00
12203;BME280;6164;42.178;24.622;2024-02-28T06:11:34;100387.09;;;4.67;100.00
12203;BME280;6164;42.178;24.622;2024-02-28T06:14:01;100387.25;;;4.77;100.00
12203;BME280;6164;42.178;24.622;2024-02-28T06:16:29;100395.84;;;4.79;100.00
12203;BME280;6164;42.178;24.622;2024-02-28T06:18:55;100398.38;;;4.91;100.00
12203;BME280;6164;42.178;24.622;2024-02-28T06:21:22;100400.56;;;4.97;100.00
12203;BME280;6164;42.178;24.622;2024-02-28T06:23:49;100406.97;;;5.04;100.00
12203;BME280;6164;42.178;24.622;2024-02-28T06:26:16;100404.97;;;5.08;100.00
12203;BME280;6164;42.178;24.622;2024-02-28T06:28:43;100406.19;;;5.15;100.00
12203;BME280;6164;42.178;24.622;2024-02-28T06:31:16;100412.03;;;5.18;100.00
12203;BME280;6164;42.178;24.622;2024-02-28T06:33:43;100413.44;;;5.11;100.00
12203;BME280;6164;42.178;24.622;2024-02-28T06:36:09;100417.03;;;4.87;100.00
12203;BME280;6164;42.178;24.622;2024-02-28T06:38:36;100418.25;;;4.94;100.00
12203;BME280;6164;42.178;24.622;2024-02-28T06:41:04;100419.84;;;5.07;100.00
12203;BME280;6164;42.178;24.622;2024-02-28T06:43:32;100423.94;;;5.22;100.00
12203;BME280;6164;42.178;24.622;2024-02-28T06:45:59;100419.81;;;5.31;100.00
12203;BME280;6164;42.178;24.622;2024-02-28T06:48:25;100419.72;;;5.44;100.00
12203;BME280;6164;42.178;24.622;2024-02-28T06:50:52;100421.03;;;5.60;100.00
12203;BME280;6164;42.178;24.622;2024-02-28T06:53:18;100424.06;;;5.78;100.00
12203;BME280;6164;42.178;24.622;2024-02-28T06:55:45;100424.34;;;5.97;100.00
12203;BME280;6164;42.178;24.622;2024-02-28T06:58:15;100421.38;;;6.12;100.00
12203;BME280;6164;42.178;24.622;2024-02-28T07:00:41;100427.31;;;6.25;100.00
12203;BME280;6164;42.178;24.622;2024-02-28T07:03:08;100422.13;;;6.46;100.00
12203;BME280;6164;42.178;24.622;2024-02-28T07:05:34;100424.63;;;6.58;100.00
12203;BME280;6164;42.178;24.622;2024-02-28T07:08:01;100430.31;;;6.75;100.00
12203;BME280;6164;42.178;24.622;2024-02-28T07:10:27;100432.22;;;6.84;100.00
12203;BME280;6164;42.178;24.622;2024-02-28T07:12:54;100433.56;;;6.99;100.00
12203;BME280;6164;42.178;24.622;2024-02-28T07:15:21;100438.66;;;7.11;100.00
12203;BME280;6164;42.178;24.622;2024-02-28T07:17:48;100439.06;;;7.27;100.00
12203;BME280;6164;42.178;24.622;2024-02-28T07:20:14;100440.81;;;7.38;100.00
12203;BME280;6164;42.178;24.622;2024-02-28T07:22:42;100433.13;;;7.46;100.00
12203;BME280;6164;42.178;24.622;2024-02-28T07:25:09;100438.31;;;7.57;100.00
12203;BME280;6164;42.178;24.622;2024-02-28T07:27:35;100446.69;;;7.71;100.00
12203;BME280;6164;42.178;24.622;2024-02-28T07:30:02;100440.25;;;7.85;100.00
12203;BME280;6164;42.178;24.622;2024-02-28T07:32:30;100438.69;;;8.03;100.00
12203;BME280;6164;42.178;24.622;2024-02-28T07:34:59;100438.22;;;8.19;100.00
12203;BME280;6164;42.178;24.622;2024-02-28T07:37:26;100437.59;;;8.36;100.00
12203;BME280;6164;42.178;24.622;2024-02-28T07:39:52;100431.13;;;8.49;100.00
12203;BME280;6164;42.178;24.622;2024-02-28T07:42:19;100429.38;;;8.59;100.00
12203;BME280;6164;42.178;24.622;2024-02-28T07:44:45;100426.75;;;8.69;100.00
12203;BME280;6164;42.178;24.622;2024-02-28T07:47:12;100421.91;;;8.83;100.00
12203;BME280;6164;42.178;24.622;2024-02-28T07:49:41;100424.28;;;8.96;100.00
12203;BME280;6164;42.178;24.622;2024-02-28T07:52:07;100423.72;;;9.11;100.00
12203;BME280;6164;42.178;24.622;2024-02-28T07:54:34;100413.75;;;9.24;100.00
12203;BME280;6164;42.178;24.622;2024-02-28T07:57:01;100409.69;;;9.40;100.00
12203;BME280;6164;42.178;24.622;2024-02-28T07:59:28;100405.09;;;9.51;100.00
12203;BME280;6164;42.178;24.622;2024-02-28T08:01:54;100410.09;;;9.64;100.00
12203;BME280;6164;42.178;24.622;2024-02-28T08:04:21;100407.72;;;9.70;100.00
12203;BME280;6164;42.178;24.622;2024-02-28T08:06:49;100398.09;;;9.79;100.00
12203;BME280;6164;42.178;24.622;2024-02-28T08:09:16;100397.78;;;9.91;100.00
12203;BME280;6164;42.178;24.622;2024-02-28T08:11:42;100392.16;;;10.04;100.00
12203;BME280;6164;42.178;24.622;2024-02-28T08:14:09;100395.88;;;10.20;100.00
12203;BME280;6164;42.178;24.622;2024-02-28T08:16:35;100396.50;;;10.32;100.00
12203;BME280;6164;42.178;24.622;2024-02-28T08:19:02;100387.97;;;10.47;100.00
12203;BME280;6164;42.178;24.622;2024-02-28T08:21:28;100384.88;;;10.52;100.00
12203;BME280;6164;42.178;24.622;2024-02-28T08:23:56;100386.03;;;10.67;100.00
12203;BME280;6164;42.178;24.622;2024-02-28T08:26:23;100375.22;;;10.78;100.00
12203;BME280;6164;42.178;24.622;2024-02-28T08:28:50;100382.03;;;10.98;100.00
12203;BME280;6164;42.178;24.622;2024-02-28T08:31:16;100382.63;;;11.10;100.00
12203;BME280;6164;42.178;24.622;2024-02-28T08:33:42;100378.19;;;11.10;100.00
12203;BME280;6164;42.178;24.622;2024-02-28T08:36:09;100373.69;;;11.28;100.00
12203;BME280;6164;42.178;24.622;2024-02-28T08:38:35;100377.47;;;11.26;100.00
12203;BME280;6164;42.178;24.622;2024-02-28T08:41:05;100376.59;;;11.43;100.00
12203;BME280;6164;42.178;24.622;2024-02-28T08:43:32;100375.34;;;11.55;100.00
12203;BME280;6164;42.178;24.622;2024-02-28T08:45:58;100375.44;;;11.63;100.00
12203;BME280;6164;42.178;24.622;2024-02-28T08:48:25;100382.81;;;11.77;100.00
12203;BME280;6164;42.178;24.622;2024-02-28T08:50:51;100377.91;;;11.90;100.00
12203;BME280;6164;42.178;24.622;2024-02-28T08:53:18;100376.50;;;12.04;100.00
12203;BME280;6164;42.178;24.622;2024-02-28T08:55:44;100369.25;;;12.06;100.00
12203;BME280;6164;42.178;24.622;2024-02-28T08:58:13;100379.88;;;12.22;100.00
12203;BME280;6164;42.178;24.622;2024-02-28T09:00:39;100375.97;;;12.34;100.00
12203;BME280;6164;42.178;24.622;2024-02-28T09:03:06;100367.56;;;12.46;100.00
12203;BME280;6164;42.178;24.622;2024-02-28T09:05:32;100374.84;;;12.60;100.00
12203;BME280;6164;42.178;24.622;2024-02-28T09:07:59;100364.25;;;12.60;100.00
12203;BME280;6164;42.178;24.622;2024-02-28T09:10:24;100366.63;;;12.63;100.00
12203;BME280;6164;42.178;24.622;2024-02-28T09:12:51;100363.97;;;12.71;100.00
12203;BME280;6164;42.178;24.622;2024-02-28T09:15:19;100357.16;;;12.77;100.00
12203;BME280;6164;42.178;24.622;2024-02-28T09:17:46;100356.88;;;12.96;100.00
12203;BME280;6164;42.178;24.622;2024-02-28T09:20:12;100355.25;;;13.11;100.00
12203;BME280;6164;42.178;24.622;2024-02-28T09:22:40;100352.09;;;13.15;100.00
12203;BME280;6164;42.178;24.622;2024-02-28T09:25:07;100349.63;;;13.14;100.00
12203;BME280;6164;42.178;24.622;2024-02-28T09:27:34;100348.28;;;13.18;100.00
12203;BME280;6164;42.178;24.622;2024-02-28T09:30:00;100345.28;;;13.13;100.00
12203;BME280;6164;42.178;24.622;2024-02-28T09:32:29;100340.19;;;13.28;100.00
12203;BME280;6164;42.178;24.622;2024-02-28T09:34:55;100343.97;;;13.49;100.00
12203;BME280;6164;42.178;24.622;2024-02-28T09:37:25;100341.75;;;13.61;100.00
12203;BME280;6164;42.178;24.622;2024-02-28T09:39:51;100337.94;;;13.63;100.00
12203;BME280;6164;42.178;24.622;2024-02-28T09:42:18;100337.94;;;13.63;100.00
12203;BME280;6164;42.178;24.622;2024-02-28T09:44:45;100331.59;;;13.80;100.00
12203;BME280;6164;42.178;24.622;2024-02-28T09:47:11;100327.38;;;13.94;100.00
12203;BME280;6164;42.178;24.622;2024-02-28T09:49:40;100320.03;;;14.04;100.00
12203;BME280;6164;42.178;24.622;2024-02-28T09:52:08;100320.31;;;14.17;100.00
12203;BME280;6164;42.178;24.622;2024-02-28T09:54:34;100314.66;;;14.28;100.00
12203;BME280;6164;42.178;24.622;2024-02-28T09:57:01;100317.63;;;14.33;100.00
12203;BME280;6164;42.178;24.622;2024-02-28T09:59:27;100302.91;;;14.45;100.00
12203;BME280;6164;42.178;24.622;2024-02-28T10:01:53;100302.53;;;14.56;100.00
12203;BME280;6164;42.178;24.622;2024-02-28T10:04:22;100301.09;;;14.68;100.00
12203;BME280;6164;42.178;24.622;2024-02-28T10:06:50;100302.88;;;14.76;100.00
12203;BME280;6164;42.178;24.622;2024-02-28T10:09:17;100292.56;;;14.81;100.00
12203;BME280;6164;42.178;24.622;2024-02-28T10:11:44;100297.53;;;14.98;100.00
12203;BME280;6164;42.178;24.622;2024-02-28T10:14:11;100296.00;;;15.04;100.00
12203;BME280;6164;42.178;24.622;2024-02-28T10:16:38;100282.75;;;15.18;100.00
12203;BME280;6164;42.178;24.622;2024-02-28T10:19:04;100281.31;;;15.30;100.00
12203;BME280;6164;42.178;24.622;2024-02-28T10:21:31;100287.22;;;15.18;100.00
12203;BME280;6164;42.178;24.622;2024-02-28T10:24:00;100274.56;;;15.05;100.00
12203;BME280;6164;42.178;24.622;2024-02-28T10:26:26;100271.31;;;14.95;100.00
12203;BME280;6164;42.178;24.622;2024-02-28T10:28:55;100266.31;;;15.15;100.00
12203;BME280;6164;42.178;24.622;2024-02-28T10:31:21;100275.41;;;15.20;100.00
12203;BME280;6164;42.178;24.622;2024-02-28T10:33:48;100261.47;;;15.33;100.00
12203;BME280;6164;42.178;24.622;2024-02-28T10:36:14;100262.78;;;15.37;100.00
12203;BME280;6164;42.178;24.622;2024-02-28T10:38:41;100261.31;;;15.49;99.57
12203;BME280;6164;42.178;24.622;2024-02-28T10:41:09;100258.75;;;15.55;99.27
12203;BME280;6164;42.178;24.622;2024-02-28T10:43:38;100249.50;;;15.66;97.10
12203;BME280;6164;42.178;24.622;2024-02-28T10:46:05;100234.69;;;15.78;96.63
12203;BME280;6164;42.178;24.622;2024-02-28T10:48:33;100221.19;;;15.79;94.97
12203;BME280;6164;42.178;24.622;2024-02-28T10:51:00;100230.63;;;15.82;93.87
12203;BME280;6164;42.178;24.622;2024-02-28T10:53:30;100232.69;;;15.65;94.60
12203;BME280;6164;42.178;24.622;2024-02-28T10:55:58;100226.06;;;15.76;96.89
12203;BME280;6164;42.178;24.622;2024-02-28T10:58:29;100216.72;;;15.65;96.83
12203;BME280;6164;42.178;24.622;2024-02-28T11:01:00;100217.81;;;15.71;96.19
12203;BME280;6164;42.178;24.622;2024-02-28T11:03:27;100217.16;;;15.69;95.47
12203;BME280;6164;42.178;24.622;2024-02-28T11:05:54;100214.03;;;15.65;95.82
12203;BME280;6164;42.178;24.622;2024-02-28T11:08:22;100212.50;;;15.71;98.50
12203;BME280;6164;42.178;24.622;2024-02-28T11:10:54;100210.09;;;15.76;96.20
12203;BME280;6164;42.178;24.622;2024-02-28T11:13:21;100204.88;;;15.68;97.59
12203;BME280;6164;42.178;24.622;2024-02-28T11:15:49;100198.75;;;15.89;95.75
12203;BME280;6164;42.178;24.622;2024-02-28T11:18:15;100194.22;;;16.04;94.43
12203;BME280;6164;42.178;24.622;2024-02-28T11:20:42;100189.47;;;16.20;93.72
12203;BME280;6164;42.178;24.622;2024-02-28T11:23:09;100196.09;;;16.24;90.98
12203;BME280;6164;42.178;24.622;2024-02-28T11:25:36;100188.97;;;16.10;91.02
12203;BME280;6164;42.178;24.622;2024-02-28T11:28:03;100186.34;;;15.96;93.01
12203;BME280;6164;42.178;24.622;2024-02-28T11:30:30;100176.13;;;15.78;94.02
12203;BME280;6164;42.178;24.622;2024-02-28T11:32:58;100175.19;;;15.86;95.72
12203;BME280;6164;42.178;24.622;2024-02-28T11:35:24;100178.63;;;16.01;94.93
12203;BME280;6164;42.178;24.622;2024-02-28T11:37:51;100168.09;;;16.14;93.60
12203;BME280;6164;42.178;24.622;2024-02-28T11:40:21;100166.66;;;16.32;93.55
12203;BME280;6164;42.178;24.622;2024-02-28T11:42:48;100167.16;;;16.42;90.66
12203;BME280;6164;42.178;24.622;2024-02-28T11:45:15;100162.84;;;16.20;91.80
12203;BME280;6164;42.178;24.622;2024-02-28T11:47:41;100150.47;;;15.92;94.54
12203;BME280;6164;42.178;24.622;2024-02-28T11:50:09;100155.19;;;16.11;94.50
12203;BME280;6164;42.178;24.622;2024-02-28T11:52:36;100154.47;;;16.23;96.78
12203;BME280;6164;42.178;24.622;2024-02-28T11:55:03;100150.16;;;16.22;94.59
12203;BME280;6164;42.178;24.622;2024-02-28T11:57:29;100145.94;;;16.49;96.09
12203;BME280;6164;42.178;24.622;2024-02-28T12:00:01;100146.50;;;16.72;93.21
12203;BME280;6164;42.178;24.622;2024-02-28T12:02:28;100146.75;;;16.77;91.49
12203;BME280;6164;42.178;24.622;2024-02-28T12:04:59;100133.78;;;16.74;90.53
12203;BME280;6164;42.178;24.622;2024-02-28T12:07:27;100135.25;;;16.76;89.78
12203;BME280;6164;42.178;24.622;2024-02-28T12:09:54;100127.75;;;16.86;89.34
12203;BME280;6164;42.178;24.622;2024-02-28T12:12:21;100125.75;;;16.95;88.08
12203;BME280;6164;42.178;24.622;2024-02-28T12:14:48;100124.75;;;16.68;87.28
12203;BME280;6164;42.178;24.622;2024-02-28T12:17:14;100122.53;;;16.72;88.94
12203;BME280;6164;42.178;24.622;2024-02-28T12:19:41;100121.28;;;16.74;88.15
12203;BME280;6164;42.178;24.622;2024-02-28T12:22:08;100115.38;;;16.79;89.58
12203;BME280;6164;42.178;24.622;2024-02-28T12:24:36;100112.94;;;16.84;87.47
12203;BME280;6164;42.178;24.622;2024-02-28T12:27:02;100118.66;;;16.81;87.70
12203;BME280;6164;42.178;24.622;2024-02-28T12:29:29;100119.09;;;16.84;86.99
12203;BME280;6164;42.178;24.622;2024-02-28T12:31:56;100110.03;;;16.79;86.94
12203;BME280;6164;42.178;24.622;2024-02-28T12:34:23;100103.84;;;17.06;86.67
12203;BME280;6164;42.178;24.622;2024-02-28T12:36:49;100104.78;;;17.33;87.28
12203;BME280;6164;42.178;24.622;2024-02-28T12:39:16;100100.16;;;17.48;85.78
12203;BME280;6164;42.178;24.622;2024-02-28T12:41:44;100098.72;;;17.52;82.91
12203;BME280;6164;42.178;24.622;2024-02-28T12:44:10;100089.25;;;17.02;83.65
12203;BME280;6164;42.178;24.622;2024-02-28T12:46:37;100091.56;;;16.77;86.17